createdAt,value
2023-02-14T00:01:12.940Z,103568.59
2023-02-14T00:03:40.215Z,103565.66
2023-02-14T00:06:13.041Z,103568.19
2023-02-14T00:08:41.168Z,103572.38
2023-02-14T00:11:09.093Z,103562.50
2023-02-14T00:13:36.336Z,103570.47
2023-02-14T00:16:03.677Z,103566.84
2023-02-14T00:18:49.238Z,103569.41
2023-02-14T00:21:16.114Z,103565.81
2023-02-14T00:23:45.765Z,103560.66
2023-02-14T00:26:15.715Z,103562.66
2023-02-14T00:28:43.437Z,103559.97
2023-02-14T00:31:10.828Z,103559.97
2023-02-14T00:33:38.280Z,103559.59
2023-02-14T00:36:07.333Z,103562.59
2023-02-14T00:38:34.756Z,103557.09
2023-02-14T00:41:02.303Z,103552.06
2023-02-14T00:43:29.291Z,103556.94
2023-02-14T00:45:57.458Z,103566.72
2023-02-14T00:48:24.306Z,103560.56
2023-02-14T00:50:51.050Z,103564.28
2023-02-14T00:53:20.262Z,103560.97
2023-02-14T00:55:47.273Z,103555.53
2023-02-14T00:58:15.115Z,103577.00
2023-02-14T01:00:42.021Z,103582.06
2023-02-14T01:03:08.812Z,103584.91
2023-02-14T01:05:35.637Z,103579.72
2023-02-14T01:08:04.372Z,103583.34
2023-02-14T01:10:31.597Z,103575.31
2023-02-14T01:12:58.763Z,103574.16
2023-02-14T01:15:25.646Z,103570.59
2023-02-14T01:17:52.460Z,103575.66
2023-02-14T01:20:21.532Z,103572.69
2023-02-14T01:22:48.291Z,103564.94
2023-02-14T01:25:15.359Z,103569.13
2023-02-14T01:27:42.184Z,103568.06
2023-02-14T01:30:09.790Z,103562.69
2023-02-14T01:32:36.894Z,103560.03
2023-02-14T01:35:05.147Z,103558.38
2023-02-14T01:37:32.092Z,103562.13
2023-02-14T01:39:59.407Z,103559.88
2023-02-14T01:42:26.393Z,103551.41
2023-02-14T01:45:04.095Z,103550.81
2023-02-14T01:47:35.940Z,103541.84
2023-02-14T01:50:12.169Z,103544.34
2023-02-14T01:52:46.072Z,103531.69
2023-02-14T01:55:17.908Z,103530.69
2023-02-14T01:57:50.224Z,103533.50
2023-02-14T02:00:36.728Z,103530.03
2023-02-14T02:03:05.691Z,103529.63
2023-02-14T02:05:32.605Z,103515.66
2023-02-14T02:08:01.475Z,103518.19
2023-02-14T02:10:28.919Z,103506.41
2023-02-14T02:12:56.336Z,103512.22
2023-02-14T02:15:26.662Z,103510.13
2023-02-14T02:18:24.764Z,103511.53
2023-02-14T02:21:18.455Z,103502.91
2023-02-14T02:23:54.587Z,103504.09
2023-02-14T02:26:40.008Z,103512.13
2023-02-14T02:29:28.198Z,103509.13
2023-02-14T02:32:00.859Z,103503.19
2023-02-14T02:35:05.646Z,103500.47
2023-02-14T02:37:38.510Z,103489.94
2023-02-14T02:40:20.297Z,103495.13
2023-02-14T02:42:58.613Z,103493.63
2023-02-14T02:45:34.718Z,103500.00
2023-02-14T02:48:20.217Z,103490.00
2023-02-14T02:51:12.673Z,103485.97
2023-02-14T02:53:55.636Z,103482.56
2023-02-14T02:56:46.150Z,103486.44
2023-02-14T02:59:20.637Z,103484.66
2023-02-14T03:02:07.401Z,103473.97
2023-02-14T03:04:53.920Z,103477.09
2023-02-14T03:07:39.835Z,103470.72
2023-02-14T03:10:08.050Z,103474.28
2023-02-14T03:12:34.704Z,103465.53
2023-02-14T03:15:29.624Z,103466.69
2023-02-14T03:18:33.792Z,103459.25
2023-02-14T03:21:58.886Z,103461.31
2023-02-14T03:24:30.918Z,103460.31
2023-02-14T03:27:50.339Z,103465.06
2023-02-14T03:30:51.672Z,103454.91
2023-02-14T03:33:40.842Z,103453.91
2023-02-14T03:36:24.389Z,103450.34
2023-02-14T03:38:59.830Z,103456.13
2023-02-14T03:41:32.930Z,103463.56
2023-02-14T03:44:04.572Z,103460.84
2023-02-14T03:46:37.910Z,103464.56
2023-02-14T03:49:10.478Z,103464.41
2023-02-14T03:51:38.647Z,103463.25
2023-02-14T03:54:11.161Z,103455.97
2023-02-14T03:56:40.935Z,103455.97
2023-02-14T03:59:29.416Z,103463.72
2023-02-14T04:02:20.491Z,103463.56
2023-02-14T04:04:50.400Z,103470.56
2023-02-14T04:07:20.555Z,103473.28
2023-02-14T04:09:48.207Z,103471.94
2023-02-14T04:12:16.954Z,103477.91
2023-02-14T04:14:45.034Z,103485.06
2023-02-14T04:17:30.600Z,103484.47
2023-02-14T04:19:57.399Z,103484.63
2023-02-14T04:22:24.107Z,103481.97
2023-02-14T04:24:50.849Z,103477.06
2023-02-14T04:27:17.600Z,103480.91
2023-02-14T04:29:47.533Z,103483.88
2023-02-14T04:32:20.793Z,103483.28
2023-02-14T04:34:48.014Z,103474.81
2023-02-14T04:37:17.918Z,103478.38
2023-02-14T04:39:44.698Z,103486.25
2023-02-14T04:42:11.571Z,103482.84
2023-02-14T04:44:38.450Z,103470.81
2023-02-14T04:47:05.778Z,103473.63
2023-02-14T04:49:32.888Z,103479.88
2023-02-14T04:52:00.394Z,103481.66
2023-02-14T04:54:27.606Z,103481.81
2023-02-14T04:56:54.588Z,103480.00
2023-02-14T04:59:24.648Z,103478.09
2023-02-14T05:01:51.862Z,103486.72
2023-02-14T05:04:18.750Z,103479.72
2023-02-14T05:06:45.608Z,103476.88
2023-02-14T05:09:12.355Z,103480.13
2023-02-14T05:11:39.188Z,103487.41
2023-02-14T05:14:05.980Z,103488.59
2023-02-14T05:16:32.871Z,103485.19
2023-02-14T05:18:59.617Z,103482.09
2023-02-14T05:21:26.694Z,103486.09
2023-02-14T05:23:53.528Z,103488.31
2023-02-14T05:26:20.361Z,103481.75
2023-02-14T05:28:47.666Z,103489.03
2023-02-14T05:31:15.069Z,103496.03
2023-02-14T05:33:42.383Z,103496.78
2023-02-14T05:36:10.137Z,103493.84
2023-02-14T05:38:36.928Z,103503.38
2023-02-14T05:41:03.768Z,103497.56
2023-02-14T05:43:30.684Z,103498.63
2023-02-14T05:45:58.531Z,103499.03
2023-02-14T05:48:25.338Z,103499.78
2023-02-14T05:50:52.155Z,103506.88
2023-02-14T05:53:19.138Z,103512.09
2023-02-14T05:55:46.196Z,103507.31
2023-02-14T05:58:13.005Z,103512.84
2023-02-14T06:00:41.419Z,103515.41
2023-02-14T06:03:08.576Z,103510.72
2023-02-14T06:05:35.805Z,103499.44
2023-02-14T06:08:02.565Z,103497.78
2023-02-14T06:10:29.561Z,103493.63
2023-02-14T06:12:56.447Z,103503.28
2023-02-14T06:15:23.256Z,103506.13
2023-02-14T06:17:57.421Z,103511.66
2023-02-14T06:20:24.938Z,103504.38
2023-02-14T06:22:52.724Z,103517.63
2023-02-14T06:25:20.345Z,103512.72
2023-02-14T06:27:49.181Z,103512.13
2023-02-14T06:30:18.237Z,103518.09
2023-02-14T06:32:45.516Z,103521.38
2023-02-14T06:35:13.762Z,103526.25
2023-02-14T06:37:42.261Z,103527.00
2023-02-14T06:40:10.484Z,103531.75
2023-02-14T06:42:38.205Z,103530.69
2023-02-14T06:45:06.442Z,103531.59
2023-02-14T06:47:35.024Z,103533.72
2023-02-14T06:50:04.904Z,103531.78
2023-02-14T06:52:33.213Z,103533.28
2023-02-14T06:54:59.910Z,103531.19
2023-02-14T06:57:26.685Z,103524.78
2023-02-14T06:59:53.518Z,103516.41
2023-02-14T07:02:21.779Z,103522.09
2023-02-14T07:04:50.394Z,103534.59
2023-02-14T07:07:17.629Z,103525.69
2023-02-14T07:09:45.189Z,103524.81
2023-02-14T07:12:12.121Z,103538.34
2023-02-14T07:14:38.925Z,103534.78
2023-02-14T07:17:05.726Z,103536.72
2023-02-14T07:19:32.682Z,103528.97
2023-02-14T07:21:59.533Z,103532.09
2023-02-14T07:24:26.813Z,103525.09
2023-02-14T07:26:53.926Z,103521.38
2023-02-14T07:29:20.998Z,103522.56
2023-02-14T07:31:47.841Z,103527.00
2023-02-14T07:34:14.717Z,103522.81
2023-02-14T07:36:41.545Z,103521.59
2023-02-14T07:39:08.323Z,103523.97
2023-02-14T07:41:35.079Z,103520.94
2023-02-14T07:44:01.865Z,103520.28
2023-02-14T07:46:28.756Z,103524.06
2023-02-14T07:48:55.579Z,103520.00
2023-02-14T07:51:22.462Z,103523.84
2023-02-14T07:53:49.332Z,103520.09
2023-02-14T07:56:16.141Z,103519.56
2023-02-14T07:58:42.948Z,103521.31
2023-02-14T08:01:09.777Z,103519.94
2023-02-14T08:03:36.665Z,103511.56
2023-02-14T08:06:03.551Z,103511.22
2023-02-14T08:08:31.873Z,103508.63
2023-02-14T08:10:59.551Z,103515.28
2023-02-14T08:13:26.596Z,103516.47
2023-02-14T08:16:06.150Z,103507.97
2023-02-14T08:18:42.432Z,103507.31
2023-02-14T08:21:11.276Z,103506.84
2023-02-14T08:23:38.639Z,103509.56
2023-02-14T08:26:05.942Z,103511.53
2023-02-14T08:28:33.393Z,103502.16
2023-02-14T08:31:00.932Z,103506.00
2023-02-14T08:33:28.254Z,103507.59
2023-02-14T08:35:54.988Z,103509.50
2023-02-14T08:38:21.849Z,103507.97
2023-02-14T08:40:48.739Z,103506.94
2023-02-14T08:43:15.701Z,103503.91
2023-02-14T08:45:43.003Z,103512.28
2023-02-14T08:48:11.847Z,103515.22
2023-02-14T08:50:39.943Z,103513.69
2023-02-14T08:53:11.467Z,103513.41
2023-02-14T08:55:38.941Z,103516.22
2023-02-14T08:58:06.701Z,103514.28
2023-02-14T09:00:33.875Z,103512.25
2023-02-14T09:03:01.105Z,103507.63
2023-02-14T09:05:28.064Z,103503.16
2023-02-14T09:07:58.038Z,103499.53
2023-02-14T09:10:25.405Z,103504.63
2023-02-14T09:12:52.389Z,103504.22
2023-02-14T09:15:19.553Z,103507.03
2023-02-14T09:17:47.063Z,103512.81
2023-02-14T09:20:15.084Z,103512.03
2023-02-14T09:22:41.839Z,103517.75
2023-02-14T09:25:08.658Z,103511.13
2023-02-14T09:27:35.371Z,103510.56
2023-02-14T09:30:02.389Z,103522.34
2023-02-14T09:32:29.505Z,103518.53
2023-02-14T09:34:57.135Z,103510.88
2023-02-14T09:37:24.258Z,103512.22
2023-02-14T09:39:51.140Z,103520.38
2023-02-14T09:42:45.887Z,103517.47
2023-02-14T09:45:21.834Z,103516.78
2023-02-14T09:48:07.135Z,103514.88
2023-02-14T09:50:47.580Z,103515.84
2023-02-14T09:53:24.950Z,103518.34
2023-02-14T09:55:54.501Z,103522.34
2023-02-14T09:58:23.491Z,103513.03
2023-02-14T10:01:06.986Z,103513.91
2023-02-14T10:03:51.709Z,103509.47
2023-02-14T10:06:57.197Z,103506.16
2023-02-14T10:09:54.304Z,103505.69
2023-02-14T10:12:39.522Z,103502.94
2023-02-14T10:15:25.363Z,103488.44
2023-02-14T10:18:01.585Z,103487.88
2023-02-14T10:20:34.860Z,103499.13
2023-02-14T10:23:18.060Z,103484.25
2023-02-14T10:25:49.294Z,103483.13
2023-02-14T10:28:24.694Z,103476.00
2023-02-14T10:31:18.061Z,103476.47
2023-02-14T10:34:09.284Z,103474.59
2023-02-14T10:37:04.071Z,103476.03
2023-02-14T10:39:30.918Z,103465.75
2023-02-14T10:42:09.835Z,103464.63
2023-02-14T10:44:49.290Z,103458.03
2023-02-14T10:47:56.578Z,103454.72
2023-02-14T10:50:31.001Z,103452.25
2023-02-14T10:53:35.366Z,103455.09
2023-02-14T10:56:34.767Z,103449.00
2023-02-14T10:59:17.354Z,103459.13
2023-02-14T11:01:44.976Z,103446.50
2023-02-14T11:04:14.306Z,103456.75
2023-02-14T11:06:41.066Z,103451.50
2023-02-14T11:09:10.126Z,103437.97
2023-02-14T11:11:43.636Z,103435.97
2023-02-14T11:14:28.308Z,103442.97
2023-02-14T11:16:57.767Z,103440.91
2023-02-14T11:23:36.547Z,103421.19
2023-02-14T11:26:09.108Z,103424.56
2023-02-14T11:28:36.479Z,103428.72
2023-02-14T11:31:03.799Z,103407.56
2023-02-14T11:33:43.991Z,103400.03
2023-02-14T11:36:16.770Z,103396.28
2023-02-14T11:38:45.835Z,103394.19
2023-02-14T11:41:15.061Z,103398.25
2023-02-14T11:43:45.576Z,103384.03
2023-02-14T11:46:21.533Z,103384.66
2023-02-14T11:49:24.294Z,103382.97
2023-02-14T11:51:52.305Z,103380.50
2023-02-14T11:54:37.577Z,103369.88
2023-02-14T11:57:07.624Z,103373.66
2023-02-14T11:59:45.452Z,103371.53
2023-02-14T12:02:30.422Z,103364.31
2023-02-14T12:05:03.494Z,103354.75
2023-02-14T12:07:42.451Z,103351.81
2023-02-14T12:10:18.067Z,103353.22
2023-02-14T12:13:09.267Z,103349.16
2023-02-14T12:15:44.881Z,103349.94
2023-02-14T12:18:45.728Z,103349.66
2023-02-14T12:21:27.999Z,103346.25
2023-02-14T12:24:00.182Z,103345.94
2023-02-14T12:26:36.003Z,103341.97
2023-02-14T12:29:14.227Z,103338.00
2023-02-14T12:31:43.174Z,103341.38
2023-02-14T12:34:16.070Z,103331.69
2023-02-14T12:37:10.828Z,103325.47
2023-02-14T12:39:56.556Z,103315.22
2023-02-14T12:42:47.140Z,103313.00
2023-02-14T12:45:58.577Z,103303.00
2023-02-14T12:48:40.329Z,103293.63
2023-02-14T12:51:22.101Z,103284.50
2023-02-14T12:54:13.987Z,103282.38
2023-02-14T12:57:03.420Z,103272.00
2023-02-14T12:59:45.090Z,103272.38
2023-02-14T13:02:35.972Z,103259.38
2023-02-14T13:05:21.561Z,103255.47
2023-02-14T13:08:10.341Z,103249.00
2023-02-14T13:10:52.675Z,103239.94
2023-02-14T13:13:47.390Z,103235.75
2023-02-14T13:16:26.185Z,103235.56
2023-02-14T13:19:07.033Z,103235.03
2023-02-14T13:21:37.536Z,103231.16
2023-02-14T13:24:16.819Z,103230.34
2023-02-14T13:26:48.676Z,103225.63
2023-02-14T13:29:23.624Z,103232.47
2023-02-14T13:31:54.311Z,103229.19
2023-02-14T13:34:46.749Z,103220.31
2023-02-14T13:37:18.594Z,103225.81
2023-02-14T13:39:55.554Z,103217.41
2023-02-14T13:42:47.771Z,103214.06
2023-02-14T13:45:30.428Z,103220.16
2023-02-14T13:48:27.514Z,103209.91
2023-02-14T13:51:07.560Z,103208.31
2023-02-14T13:53:35.949Z,103205.63
2023-02-14T13:56:05.784Z,103205.41
2023-02-14T13:58:33.510Z,103198.56
2023-02-14T14:01:48.329Z,103202.69
2023-02-14T14:04:29.240Z,103195.09
2023-02-14T14:07:05.356Z,103204.03
2023-02-14T14:09:44.387Z,103188.91
2023-02-14T14:12:26.571Z,103193.56
2023-02-14T14:15:05.579Z,103189.72
2023-02-14T14:17:40.249Z,103190.53
2023-02-14T14:20:15.936Z,103183.47
2023-02-14T14:23:00.426Z,103181.94
2023-02-14T14:25:41.151Z,103187.63
2023-02-14T14:28:29.869Z,103182.78
2023-02-14T14:30:57.174Z,103182.38
2023-02-14T14:33:34.810Z,103179.13
2023-02-14T14:36:07.929Z,103177.53
2023-02-14T14:38:47.369Z,103178.72
2023-02-14T14:41:14.251Z,103171.03
2023-02-14T14:43:42.099Z,103174.97
2023-02-14T14:46:12.635Z,103181.00
2023-02-14T14:48:44.022Z,103176.81
2023-02-14T14:51:37.172Z,103174.59
2023-02-14T14:54:13.123Z,103175.09
2023-02-14T14:56:52.814Z,103173.00
2023-02-14T14:59:22.571Z,103167.81
2023-02-14T15:01:54.481Z,103164.56
2023-02-14T15:04:31.114Z,103165.25
2023-02-14T15:07:17.580Z,103168.28
2023-02-14T15:09:45.539Z,103167.09
2023-02-14T15:12:34.890Z,103176.81
2023-02-14T15:15:02.061Z,103170.72
2023-02-14T15:17:31.825Z,103171.69
2023-02-14T15:20:02.998Z,103167.72
2023-02-14T15:22:34.266Z,103168.72
2023-02-14T15:25:01.318Z,103174.34
2023-02-14T15:27:28.777Z,103174.53
2023-02-14T15:30:04.584Z,103169.66
2023-02-14T15:32:36.019Z,103163.63
2023-02-14T15:35:06.042Z,103166.94
2023-02-14T15:37:33.524Z,103174.00
2023-02-14T15:40:00.617Z,103174.91
2023-02-14T15:42:33.688Z,103168.78
2023-02-14T15:45:22.850Z,103172.91
2023-02-14T15:47:55.418Z,103170.53
2023-02-14T15:50:29.126Z,103176.00
2023-02-14T15:53:04.156Z,103175.94
2023-02-14T15:55:32.749Z,103183.28
2023-02-14T15:58:09.171Z,103177.78
2023-02-14T16:00:36.589Z,103180.34
2023-02-14T16:03:12.325Z,103182.06
2023-02-14T16:05:45.649Z,103183.81
2023-02-14T16:08:34.243Z,103178.59
2023-02-14T16:11:16.033Z,103188.06
2023-02-14T16:13:44.957Z,103188.66
2023-02-14T16:16:13.988Z,103186.66
2023-02-14T16:18:42.280Z,103183.63
2023-02-14T16:21:28.787Z,103184.06
2023-02-14T16:24:08.061Z,103187.56
2023-02-14T16:26:38.172Z,103177.75
2023-02-14T16:29:10.413Z,103183.22
2023-02-14T16:32:14.798Z,103182.84
2023-02-14T16:34:41.024Z,103176.56
2023-02-14T16:37:26.003Z,103174.44
2023-02-14T16:39:54.631Z,103174.06
2023-02-14T16:42:21.533Z,103176.25
2023-02-14T16:44:49.112Z,103178.25
2023-02-14T16:47:18.619Z,103165.75
2023-02-14T16:49:45.887Z,103173.94
2023-02-14T16:52:26.289Z,103171.81
2023-02-14T16:54:53.686Z,103167.94
2023-02-14T16:57:30.168Z,103176.53
2023-02-14T16:59:57.598Z,103173.69
2023-02-14T17:02:28.360Z,103174.84
2023-02-14T17:04:55.295Z,103190.19
2023-02-14T17:07:22.478Z,103197.47
2023-02-14T17:09:54.792Z,103195.22
2023-02-14T17:12:26.824Z,103196.38
2023-02-14T17:14:56.785Z,103201.09
2023-02-14T17:17:23.826Z,103198.81
2023-02-14T17:19:52.760Z,103196.66
2023-02-14T17:22:20.423Z,103198.13
2023-02-14T17:24:47.282Z,103196.84
2023-02-14T17:27:14.398Z,103189.34
2023-02-14T17:29:41.966Z,103198.88
2023-02-14T17:32:13.060Z,103194.09
2023-02-14T17:34:41.066Z,103199.06
2023-02-14T17:37:07.973Z,103200.78
2023-02-14T17:39:35.047Z,103199.81
2023-02-14T17:42:01.829Z,103191.03
2023-02-14T17:44:36.049Z,103198.47
2023-02-14T17:47:04.005Z,103203.94
2023-02-14T17:49:31.162Z,103202.72
2023-02-14T17:51:58.161Z,103193.97
2023-02-14T17:54:25.041Z,103192.09
2023-02-14T17:56:52.566Z,103202.22
2023-02-14T17:59:19.361Z,103192.34
2023-02-14T18:01:46.375Z,103194.13
2023-02-14T18:04:13.160Z,103184.59
2023-02-14T18:06:40.464Z,103185.03
2023-02-14T18:09:07.215Z,103187.59
2023-02-14T18:11:34.037Z,103185.13
2023-02-14T18:14:01.864Z,103179.81
2023-02-14T18:16:29.018Z,103183.28
2023-02-14T18:18:55.898Z,103180.63
2023-02-14T18:21:24.609Z,103185.41
2023-02-14T18:23:52.079Z,103181.41
2023-02-14T18:26:18.914Z,103177.88
2023-02-14T18:28:45.972Z,103169.34
2023-02-14T18:31:15.586Z,103171.41
2023-02-14T18:33:43.441Z,103164.34
2023-02-14T18:36:16.765Z,103171.88
2023-02-14T18:38:46.057Z,103175.88
2023-02-14T18:41:18.138Z,103168.22
2023-02-14T18:43:45.183Z,103173.44
2023-02-14T18:46:19.485Z,103169.25
2023-02-14T18:48:46.476Z,103165.56
2023-02-14T18:51:16.571Z,103170.41
2023-02-14T18:53:45.268Z,103165.88
2023-02-14T18:56:15.360Z,103168.53
2023-02-14T18:58:50.782Z,103166.75
2023-02-14T19:01:28.762Z,103169.53
2023-02-14T19:03:56.459Z,103167.56
2023-02-14T19:06:23.628Z,103169.53
2023-02-14T19:08:51.361Z,103173.69
2023-02-14T19:11:21.900Z,103167.44
2023-02-14T19:13:52.224Z,103175.66
2023-02-14T19:16:24.850Z,103167.00
2023-02-14T19:18:53.394Z,103169.44
2023-02-14T19:21:24.108Z,103164.78
2023-02-14T19:23:53.421Z,103173.75
2023-02-14T19:26:32.978Z,103173.75
2023-02-14T19:29:02.817Z,103167.03
2023-02-14T19:31:30.841Z,103157.72
2023-02-14T19:33:58.049Z,103162.81
2023-02-14T19:36:24.923Z,103159.69
2023-02-14T19:38:53.799Z,103158.34
2023-02-14T19:41:24.686Z,103154.81
2023-02-14T19:43:52.641Z,103152.16
2023-02-14T19:46:24.649Z,103150.06
2023-02-14T19:48:52.244Z,103152.38
2023-02-14T19:51:25.947Z,103160.56
2023-02-14T19:53:56.168Z,103148.72
2023-02-14T19:56:26.070Z,103167.88
2023-02-14T19:58:58.933Z,103157.34
2023-02-14T20:01:31.139Z,103161.44
2023-02-14T20:03:58.415Z,103165.41
2023-02-14T20:06:26.514Z,103169.63
2023-02-14T20:08:53.915Z,103164.75
2023-02-14T20:11:38.567Z,103156.34
2023-02-14T20:14:06.917Z,103168.50
2023-02-14T20:16:35.499Z,103165.19
2023-02-14T20:19:04.503Z,103166.03
2023-02-14T20:21:31.460Z,103166.69
2023-02-14T20:24:03.539Z,103173.66
2023-02-14T20:26:32.765Z,103177.97
2023-02-14T20:29:03.786Z,103173.31
2023-02-14T20:31:32.183Z,103171.72
2023-02-14T20:33:59.502Z,103166.50
2023-02-14T20:36:27.036Z,103166.13
2023-02-14T20:38:57.523Z,103167.44
2023-02-14T20:41:26.167Z,103170.66
2023-02-14T20:43:53.307Z,103169.31
2023-02-14T20:46:20.549Z,103161.91
2023-02-14T20:48:48.222Z,103167.25
2023-02-14T20:51:17.601Z,103162.69
2023-02-14T20:53:45.853Z,103165.00
2023-02-14T20:56:14.284Z,103166.78
2023-02-14T20:58:41.979Z,103167.44
2023-02-14T21:01:13.419Z,103171.28
2023-02-14T21:03:41.089Z,103166.47
2023-02-14T21:06:16.468Z,103165.84
2023-02-14T21:08:45.093Z,103169.63
2023-02-14T21:11:13.899Z,103162.53
2023-02-14T21:13:40.801Z,103164.47
2023-02-14T21:16:19.570Z,103164.56
2023-02-14T21:18:52.777Z,103169.91
2023-02-14T21:21:26.071Z,103164.72
2023-02-14T21:23:53.616Z,103171.88
2023-02-14T21:26:21.606Z,103170.31
2023-02-14T21:28:49.036Z,103168.16
2023-02-14T21:31:21.011Z,103166.50
2023-02-14T21:33:56.071Z,103160.03
2023-02-14T21:36:25.371Z,103161.41
2023-02-14T21:38:56.165Z,103164.47
2023-02-14T21:41:25.400Z,103170.56
2023-02-14T21:43:56.428Z,103161.94
2023-02-14T21:46:27.638Z,103159.03
2023-02-14T21:49:15.217Z,103159.31
2023-02-14T21:51:43.028Z,103152.91
2023-02-14T21:54:10.558Z,103151.06
2023-02-14T21:56:39.300Z,103154.47
2023-02-14T21:59:06.393Z,103148.91
2023-02-14T22:01:36.042Z,103147.00
2023-02-14T22:04:07.785Z,103144.88
2023-02-14T22:06:37.439Z,103137.25
2023-02-14T22:09:05.075Z,103151.22
2023-02-14T22:11:31.878Z,103138.75
2023-02-14T22:14:00.211Z,103138.59
2023-02-14T22:16:27.154Z,103137.09
2023-02-14T22:18:53.958Z,103135.97
2023-02-14T22:21:26.693Z,103127.94
2023-02-14T22:23:57.201Z,103131.03
2023-02-14T22:26:26.363Z,103127.63
2023-02-14T22:28:59.215Z,103130.16
2023-02-14T22:31:29.177Z,103133.81
2023-02-14T22:33:56.048Z,103132.81
2023-02-14T22:36:22.903Z,103146.44
2023-02-14T22:38:49.762Z,103134.44
2023-02-14T22:41:19.426Z,103137.47
2023-02-14T22:43:46.548Z,103135.31
2023-02-14T22:46:19.842Z,103136.56
2023-02-14T22:48:47.984Z,103130.56
2023-02-14T22:51:36.532Z,103141.66
2023-02-14T22:54:14.906Z,103136.56
2023-02-14T22:56:44.907Z,103138.88
2023-02-14T22:59:18.284Z,103132.38
2023-02-14T23:01:45.851Z,103146.66
2023-02-14T23:04:13.203Z,103137.09
2023-02-14T23:06:40.099Z,103141.69
2023-02-14T23:09:08.479Z,103144.22
2023-02-14T23:11:37.972Z,103136.41
2023-02-14T23:14:24.804Z,103143.88
2023-02-14T23:17:10.787Z,103135.63
2023-02-14T23:19:56.719Z,103144.78
2023-02-14T23:22:29.751Z,103136.13
2023-02-14T23:24:58.383Z,103139.44
2023-02-14T23:27:37.205Z,103133.09
2023-02-14T23:30:10.924Z,103129.28
2023-02-14T23:32:37.729Z,103130.78
2023-02-14T23:35:06.109Z,103118.47
2023-02-14T23:37:33.663Z,103123.69
2023-02-14T23:40:00.424Z,103123.19
2023-02-14T23:42:28.396Z,103114.69
2023-02-14T23:45:15.106Z,103121.56
2023-02-14T23:47:41.944Z,103116.13
2023-02-14T23:50:09.311Z,103115.59
2023-02-14T23:52:38.489Z,103115.09
2023-02-14T23:55:05.730Z,103120.06
2023-02-14T23:57:32.540Z,103116.50
